sensor_id;sensor_type;location;lat;lon;timestamp;P1;durP1;ratioP1;P2;durP2;ratioP2
10309;SDS011;5200;43.236;27.986;2023-07-30T00:00:35;7.00;;;2.65;;
10309;SDS011;5200;43.236;27.986;2023-07-30T00:03:01;3.15;;;2.00;;
10309;SDS011;5200;43.236;27.986;2023-07-30T00:05:28;6.22;;;2.25;;
10309;SDS011;5200;43.236;27.986;2023-07-30T00:07:55;4.88;;;2.65;;
10309;SDS011;5200;43.236;27.986;2023-07-30T00:10:23;3.05;;;2.10;;
10309;SDS011;5200;43.236;27.986;2023-07-30T00:12:50;2.92;;;2.20;;
10309;SDS011;5200;43.236;27.986;2023-07-30T00:15:18;3.20;;;2.38;;
10309;SDS011;5200;43.236;27.986;2023-07-30T00:17:45;3.33;;;2.10;;
10309;SDS011;5200;43.236;27.986;2023-07-30T00:20:12;2.78;;;2.13;;
10309;SDS011;5200;43.236;27.986;2023-07-30T00:22:39;3.20;;;2.30;;
10309;SDS011;5200;43.236;27.986;2023-07-30T00:25:06;3.72;;;2.10;;
10309;SDS011;5200;43.236;27.986;2023-07-30T00:27:35;3.70;;;2.22;;
10309;SDS011;5200;43.236;27.986;2023-07-30T00:30:02;3.53;;;2.67;;
10309;SDS011;5200;43.236;27.986;2023-07-30T00:32:29;2.35;;;2.05;;
10309;SDS011;5200;43.236;27.986;2023-07-30T00:34:56;3.15;;;2.33;;
10309;SDS011;5200;43.236;27.986;2023-07-30T00:37:23;4.57;;;2.30;;
10309;SDS011;5200;43.236;27.986;2023-07-30T00:39:49;5.55;;;2.67;;
10309;SDS011;5200;43.236;27.986;2023-07-30T00:42:16;5.72;;;2.55;;
10309;SDS011;5200;43.236;27.986;2023-07-30T00:44:45;3.40;;;2.28;;
10309;SDS011;5200;43.236;27.986;2023-07-30T00:47:11;4.28;;;2.30;;
10309;SDS011;5200;43.236;27.986;2023-07-30T00:49:39;1.92;;;1.83;;
10309;SDS011;5200;43.236;27.986;2023-07-30T00:52:06;3.75;;;2.17;;
10309;SDS011;5200;43.236;27.986;2023-07-30T00:54:34;3.10;;;1.77;;
10309;SDS011;5200;43.236;27.986;2023-07-30T00:57:01;4.78;;;2.33;;
10309;SDS011;5200;43.236;27.986;2023-07-30T00:59:28;3.10;;;2.40;;
10309;SDS011;5200;43.236;27.986;2023-07-30T01:01:56;3.30;;;2.20;;
10309;SDS011;5200;43.236;27.986;2023-07-30T01:04:25;5.28;;;2.13;;
10309;SDS011;5200;43.236;27.986;2023-07-30T01:06:52;2.45;;;2.25;;
10309;SDS011;5200;43.236;27.986;2023-07-30T01:09:19;3.72;;;1.85;;
10309;SDS011;5200;43.236;27.986;2023-07-30T01:11:46;3.08;;;1.90;;
10309;SDS011;5200;43.236;27.986;2023-07-30T01:14:14;2.33;;;1.90;;
10309;SDS011;5200;43.236;27.986;2023-07-30T01:16:44;4.00;;;2.78;;
10309;SDS011;5200;43.236;27.986;2023-07-30T01:19:12;3.03;;;1.90;;
10309;SDS011;5200;43.236;27.986;2023-07-30T01:21:41;2.33;;;2.17;;
10309;SDS011;5200;43.236;27.986;2023-07-30T01:24:07;2.72;;;2.10;;
10309;SDS011;5200;43.236;27.986;2023-07-30T01:26:36;3.05;;;2.22;;
10309;SDS011;5200;43.236;27.986;2023-07-30T01:29:07;2.40;;;2.20;;
10309;SDS011;5200;43.236;27.986;2023-07-30T01:31:37;3.25;;;2.05;;
10309;SDS011;5200;43.236;27.986;2023-07-30T01:34:06;3.17;;;2.00;;
10309;SDS011;5200;43.236;27.986;2023-07-30T01:36:36;2.45;;;1.90;;
10309;SDS011;5200;43.236;27.986;2023-07-30T01:39:06;2.28;;;2.13;;
10309;SDS011;5200;43.236;27.986;2023-07-30T01:41:35;2.60;;;2.40;;
10309;SDS011;5200;43.236;27.986;2023-07-30T01:44:03;2.30;;;2.20;;
10309;SDS011;5200;43.236;27.986;2023-07-30T01:46:30;2.22;;;2.03;;
10309;SDS011;5200;43.236;27.986;2023-07-30T01:48:57;2.78;;;2.20;;
10309;SDS011;5200;43.236;27.986;2023-07-30T01:51:24;3.72;;;1.88;;
10309;SDS011;5200;43.236;27.986;2023-07-30T01:53:51;1.83;;;1.73;;
10309;SDS011;5200;43.236;27.986;2023-07-30T01:56:19;5.90;;;2.30;;
10309;SDS011;5200;43.236;27.986;2023-07-30T01:58:46;2.53;;;2.33;;
10309;SDS011;5200;43.236;27.986;2023-07-30T02:01:13;2.20;;;2.10;;
10309;SDS011;5200;43.236;27.986;2023-07-30T02:03:39;4.05;;;1.88;;
10309;SDS011;5200;43.236;27.986;2023-07-30T02:06:06;2.50;;;2.28;;
10309;SDS011;5200;43.236;27.986;2023-07-30T02:08:33;3.20;;;2.22;;
10309;SDS011;5200;43.236;27.986;2023-07-30T02:11:00;4.97;;;2.80;;
10309;SDS011;5200;43.236;27.986;2023-07-30T02:13:28;5.43;;;1.98;;
10309;SDS011;5200;43.236;27.986;2023-07-30T02:15:55;2.30;;;2.10;;
10309;SDS011;5200;43.236;27.986;2023-07-30T02:18:22;3.67;;;2.17;;
10309;SDS011;5200;43.236;27.986;2023-07-30T02:20:49;2.58;;;1.98;;
10309;SDS011;5200;43.236;27.986;2023-07-30T02:23:16;2.85;;;2.30;;
10309;SDS011;5200;43.236;27.986;2023-07-30T02:25:43;4.18;;;2.05;;
10309;SDS011;5200;43.236;27.986;2023-07-30T02:28:10;2.70;;;2.50;;
10309;SDS011;5200;43.236;27.986;2023-07-30T02:30:38;3.25;;;2.28;;
10309;SDS011;5200;43.236;27.986;2023-07-30T02:33:05;1.73;;;1.63;;
10309;SDS011;5200;43.236;27.986;2023-07-30T02:35:32;2.20;;;2.05;;
10309;SDS011;5200;43.236;27.986;2023-07-30T02:37:59;3.30;;;2.15;;
10309;SDS011;5200;43.236;27.986;2023-07-30T02:40:25;2.42;;;2.22;;
10309;SDS011;5200;43.236;27.986;2023-07-30T02:42:52;2.40;;;2.20;;
10309;SDS011;5200;43.236;27.986;2023-07-30T02:45:19;2.47;;;2.28;;
10309;SDS011;5200;43.236;27.986;2023-07-30T02:47:48;4.50;;;2.30;;
10309;SDS011;5200;43.236;27.986;2023-07-30T02:50:15;3.08;;;2.33;;
10309;SDS011;5200;43.236;27.986;2023-07-30T02:52:41;3.50;;;2.30;;
10309;SDS011;5200;43.236;27.986;2023-07-30T02:55:09;2.35;;;2.15;;
10309;SDS011;5200;43.236;27.986;2023-07-30T02:57:35;4.45;;;2.15;;
10309;SDS011;5200;43.236;27.986;2023-07-30T03:00:03;2.35;;;2.15;;
10309;SDS011;5200;43.236;27.986;2023-07-30T03:02:30;2.05;;;1.88;;
10309;SDS011;5200;43.236;27.986;2023-07-30T03:04:58;2.17;;;1.98;;
10309;SDS011;5200;43.236;27.986;2023-07-30T03:07:26;2.38;;;2.13;;
10309;SDS011;5200;43.236;27.986;2023-07-30T03:09:53;2.47;;;1.85;;
10309;SDS011;5200;43.236;27.986;2023-07-30T03:12:20;2.03;;;1.92;;
10309;SDS011;5200;43.236;27.986;2023-07-30T03:14:46;4.47;;;1.73;;
10309;SDS011;5200;43.236;27.986;2023-07-30T03:17:13;3.85;;;1.63;;
10309;SDS011;5200;43.236;27.986;2023-07-30T03:19:40;2.08;;;1.85;;
10309;SDS011;5200;43.236;27.986;2023-07-30T03:22:09;1.98;;;1.60;;
10309;SDS011;5200;43.236;27.986;2023-07-30T03:24:35;2.08;;;1.70;;
10309;SDS011;5200;43.236;27.986;2023-07-30T03:27:02;1.65;;;1.55;;
10309;SDS011;5200;43.236;27.986;2023-07-30T03:29:30;2.30;;;1.83;;
10309;SDS011;5200;43.236;27.986;2023-07-30T03:31:57;2.75;;;1.50;;
10309;SDS011;5200;43.236;27.986;2023-07-30T03:34:23;1.60;;;1.50;;
10309;SDS011;5200;43.236;27.986;2023-07-30T03:36:50;3.35;;;1.38;;
10309;SDS011;5200;43.236;27.986;2023-07-30T03:39:19;4.82;;;1.48;;
10309;SDS011;5200;43.236;27.986;2023-07-30T03:41:45;1.83;;;1.48;;
10309;SDS011;5200;43.236;27.986;2023-07-30T03:44:12;2.70;;;1.52;;
10309;SDS011;5200;43.236;27.986;2023-07-30T03:46:39;1.73;;;1.40;;
10309;SDS011;5200;43.236;27.986;2023-07-30T03:49:06;5.07;;;1.40;;
10309;SDS011;5200;43.236;27.986;2023-07-30T03:51:33;1.42;;;1.13;;
10309;SDS011;5200;43.236;27.986;2023-07-30T03:53:59;2.30;;;1.42;;
10309;SDS011;5200;43.236;27.986;2023-07-30T03:56:28;4.07;;;1.40;;
10309;SDS011;5200;43.236;27.986;2023-07-30T03:58:55;2.97;;;1.27;;
10309;SDS011;5200;43.236;27.986;2023-07-30T04:01:21;1.27;;;1.17;;
10309;SDS011;5200;43.236;27.986;2023-07-30T04:03:48;1.40;;;1.30;;
10309;SDS011;5200;43.236;27.986;2023-07-30T04:06:15;1.67;;;1.35;;
10309;SDS011;5200;43.236;27.986;2023-07-30T04:08:42;5.82;;;1.40;;
10309;SDS011;5200;43.236;27.986;2023-07-30T04:11:09;1.33;;;1.33;;
10309;SDS011;5200;43.236;27.986;2023-07-30T04:13:37;2.40;;;1.25;;
10309;SDS011;5200;43.236;27.986;2023-07-30T04:16:05;1.33;;;1.23;;
10309;SDS011;5200;43.236;27.986;2023-07-30T04:18:32;2.83;;;1.45;;
10309;SDS011;5200;43.236;27.986;2023-07-30T04:20:59;1.10;;;1.10;;
10309;SDS011;5200;43.236;27.986;2023-07-30T04:23:26;1.77;;;1.40;;
10309;SDS011;5200;43.236;27.986;2023-07-30T04:25:53;2.00;;;1.15;;
10309;SDS011;5200;43.236;27.986;2023-07-30T04:28:20;1.63;;;1.33;;
10309;SDS011;5200;43.236;27.986;2023-07-30T04:30:48;1.48;;;0.80;;
10309;SDS011;5200;43.236;27.986;2023-07-30T04:33:15;1.05;;;1.02;;
10309;SDS011;5200;43.236;27.986;2023-07-30T04:35:42;2.33;;;1.20;;
10309;SDS011;5200;43.236;27.986;2023-07-30T04:38:11;1.23;;;1.17;;
10309;SDS011;5200;43.236;27.986;2023-07-30T04:40:38;1.73;;;1.55;;
10309;SDS011;5200;43.236;27.986;2023-07-30T04:45:43;1.30;;;1.20;;
10309;SDS011;5200;43.236;27.986;2023-07-30T04:48:11;1.38;;;1.10;;
10309;SDS011;5200;43.236;27.986;2023-07-30T04:50:38;1.48;;;1.38;;
10309;SDS011;5200;43.236;27.986;2023-07-30T04:53:07;1.42;;;1.20;;
10309;SDS011;5200;43.236;27.986;2023-07-30T04:55:34;1.52;;;1.10;;
10309;SDS011;5200;43.236;27.986;2023-07-30T04:58:01;1.30;;;1.20;;
10309;SDS011;5200;43.236;27.986;2023-07-30T05:00:28;1.67;;;1.23;;
10309;SDS011;5200;43.236;27.986;2023-07-30T05:02:55;1.50;;;1.40;;
10309;SDS011;5200;43.236;27.986;2023-07-30T05:05:23;3.38;;;1.63;;
10309;SDS011;5200;43.236;27.986;2023-07-30T05:07:50;1.20;;;1.08;;
10309;SDS011;5200;43.236;27.986;2023-07-30T05:10:17;1.20;;;1.10;;
10309;SDS011;5200;43.236;27.986;2023-07-30T05:12:44;1.30;;;1.08;;
10309;SDS011;5200;43.236;27.986;2023-07-30T05:15:11;2.15;;;1.33;;
10309;SDS011;5200;43.236;27.986;2023-07-30T05:17:38;4.65;;;1.40;;
10309;SDS011;5200;43.236;27.986;2023-07-30T05:20:05;2.20;;;1.42;;
10309;SDS011;5200;43.236;27.986;2023-07-30T05:22:34;1.60;;;1.30;;
10309;SDS011;5200;43.236;27.986;2023-07-30T05:25:01;3.83;;;1.60;;
10309;SDS011;5200;43.236;27.986;2023-07-30T05:27:28;1.23;;;1.13;;
10309;SDS011;5200;43.236;27.986;2023-07-30T05:29:56;1.58;;;1.10;;
10309;SDS011;5200;43.236;27.986;2023-07-30T05:32:23;2.55;;;1.35;;
10309;SDS011;5200;43.236;27.986;2023-07-30T05:34:51;1.15;;;1.15;;
10309;SDS011;5200;43.236;27.986;2023-07-30T05:37:18;1.38;;;1.23;;
10309;SDS011;5200;43.236;27.986;2023-07-30T05:39:46;2.05;;;1.73;;
10309;SDS011;5200;43.236;27.986;2023-07-30T05:42:13;2.13;;;1.15;;
10309;SDS011;5200;43.236;27.986;2023-07-30T05:44:40;1.75;;;1.23;;
10309;SDS011;5200;43.236;27.986;2023-07-30T05:47:07;1.45;;;1.35;;
10309;SDS011;5200;43.236;27.986;2023-07-30T05:49:34;4.25;;;1.40;;
10309;SDS011;5200;43.236;27.986;2023-07-30T05:52:02;1.23;;;1.13;;
10309;SDS011;5200;43.236;27.986;2023-07-30T05:54:29;1.33;;;1.23;;
10309;SDS011;5200;43.236;27.986;2023-07-30T05:56:57;1.60;;;1.45;;
10309;SDS011;5200;43.236;27.986;2023-07-30T05:59:24;7.20;;;1.42;;
10309;SDS011;5200;43.236;27.986;2023-07-30T06:01:51;5.78;;;1.20;;
10309;SDS011;5200;43.236;27.986;2023-07-30T06:04:17;1.38;;;1.20;;
10309;SDS011;5200;43.236;27.986;2023-07-30T06:06:44;1.13;;;1.13;;
10309;SDS011;5200;43.236;27.986;2023-07-30T06:09:11;0.90;;;0.90;;
10309;SDS011;5200;43.236;27.986;2023-07-30T06:11:38;2.55;;;1.50;;
10309;SDS011;5200;43.236;27.986;2023-07-30T06:14:06;2.28;;;1.60;;
10309;SDS011;5200;43.236;27.986;2023-07-30T06:16:33;1.30;;;1.30;;
10309;SDS011;5200;43.236;27.986;2023-07-30T06:19:00;1.42;;;1.33;;
10309;SDS011;5200;43.236;27.986;2023-07-30T06:21:26;2.15;;;1.45;;
10309;SDS011;5200;43.236;27.986;2023-07-30T06:23:53;1.40;;;1.30;;
10309;SDS011;5200;43.236;27.986;2023-07-30T06:26:20;1.35;;;0.98;;
10309;SDS011;5200;43.236;27.986;2023-07-30T06:28:47;4.05;;;1.10;;
10309;SDS011;5200;43.236;27.986;2023-07-30T06:31:15;1.40;;;1.15;;
10309;SDS011;5200;43.236;27.986;2023-07-30T06:33:42;2.97;;;1.52;;
10309;SDS011;5200;43.236;27.986;2023-07-30T06:36:09;1.27;;;1.17;;
10309;SDS011;5200;43.236;27.986;2023-07-30T06:38:35;1.45;;;1.35;;
10309;SDS011;5200;43.236;27.986;2023-07-30T06:41:02;1.40;;;1.30;;
10309;SDS011;5200;43.236;27.986;2023-07-30T06:43:29;1.00;;;1.00;;
10309;SDS011;5200;43.236;27.986;2023-07-30T06:45:56;1.40;;;1.23;;
10309;SDS011;5200;43.236;27.986;2023-07-30T06:48:24;2.65;;;1.45;;
10309;SDS011;5200;43.236;27.986;2023-07-30T06:50:51;1.63;;;1.30;;
10309;SDS011;5200;43.236;27.986;2023-07-30T06:53:18;1.55;;;1.45;;
10309;SDS011;5200;43.236;27.986;2023-07-30T06:55:44;1.05;;;1.00;;
10309;SDS011;5200;43.236;27.986;2023-07-30T06:58:11;3.70;;;1.48;;
10309;SDS011;5200;43.236;27.986;2023-07-30T07:00:39;1.30;;;1.15;;
10309;SDS011;5200;43.236;27.986;2023-07-30T07:03:06;1.60;;;1.20;;
10309;SDS011;5200;43.236;27.986;2023-07-30T07:05:34;1.95;;;1.10;;
10309;SDS011;5200;43.236;27.986;2023-07-30T07:08:01;1.55;;;1.20;;
10309;SDS011;5200;43.236;27.986;2023-07-30T07:10:27;1.17;;;1.00;;
10309;SDS011;5200;43.236;27.986;2023-07-30T07:12:54;1.17;;;1.17;;
10309;SDS011;5200;43.236;27.986;2023-07-30T07:15:21;1.60;;;1.48;;
10309;SDS011;5200;43.236;27.986;2023-07-30T07:17:48;2.22;;;1.30;;
10309;SDS011;5200;43.236;27.986;2023-07-30T07:20:15;1.40;;;1.30;;
10309;SDS011;5200;43.236;27.986;2023-07-30T07:22:43;1.98;;;1.55;;
10309;SDS011;5200;43.236;27.986;2023-07-30T07:25:10;1.40;;;1.30;;
10309;SDS011;5200;43.236;27.986;2023-07-30T07:27:37;2.45;;;1.17;;
10309;SDS011;5200;43.236;27.986;2023-07-30T07:30:04;1.40;;;1.30;;
10309;SDS011;5200;43.236;27.986;2023-07-30T07:32:32;3.00;;;0.95;;
10309;SDS011;5200;43.236;27.986;2023-07-30T07:35:03;1.92;;;1.25;;
10309;SDS011;5200;43.236;27.986;2023-07-30T07:37:31;4.72;;;1.70;;
10309;SDS011;5200;43.236;27.986;2023-07-30T07:39:59;1.05;;;0.95;;
10309;SDS011;5200;43.236;27.986;2023-07-30T07:42:27;7.38;;;1.55;;
10309;SDS011;5200;43.236;27.986;2023-07-30T07:44:55;1.30;;;1.17;;
10309;SDS011;5200;43.236;27.986;2023-07-30T07:47:22;1.77;;;1.08;;
10309;SDS011;5200;43.236;27.986;2023-07-30T07:49:49;2.85;;;1.65;;
10309;SDS011;5200;43.236;27.986;2023-07-30T07:52:15;3.13;;;1.73;;
10309;SDS011;5200;43.236;27.986;2023-07-30T07:54:42;1.60;;;1.50;;
10309;SDS011;5200;43.236;27.986;2023-07-30T07:57:10;1.02;;;0.98;;
10309;SDS011;5200;43.236;27.986;2023-07-30T07:59:37;1.05;;;0.95;;
10309;SDS011;5200;43.236;27.986;2023-07-30T08:02:04;1.75;;;1.58;;
10309;SDS011;5200;43.236;27.986;2023-07-30T08:04:32;1.17;;;1.13;;
10309;SDS011;5200;43.236;27.986;2023-07-30T08:06:58;2.15;;;1.42;;
10309;SDS011;5200;43.236;27.986;2023-07-30T08:09:28;1.80;;;1.08;;
10309;SDS011;5200;43.236;27.986;2023-07-30T08:11:55;1.33;;;1.15;;
10309;SDS011;5200;43.236;27.986;2023-07-30T08:14:23;1.48;;;1.20;;
10309;SDS011;5200;43.236;27.986;2023-07-30T08:16:50;1.52;;;1.30;;
10309;SDS011;5200;43.236;27.986;2023-07-30T08:19:17;1.17;;;1.10;;
10309;SDS011;5200;43.236;27.986;2023-07-30T08:21:44;1.08;;;1.08;;
10309;SDS011;5200;43.236;27.986;2023-07-30T08:24:11;2.67;;;1.38;;
10309;SDS011;5200;43.236;27.986;2023-07-30T08:26:38;1.15;;;1.10;;
10309;SDS011;5200;43.236;27.986;2023-07-30T08:29:04;1.67;;;1.58;;
10309;SDS011;5200;43.236;27.986;2023-07-30T08:31:36;1.40;;;1.02;;
10309;SDS011;5200;43.236;27.986;2023-07-30T08:34:03;2.55;;;1.38;;
10309;SDS011;5200;43.236;27.986;2023-07-30T08:36:30;2.22;;;1.20;;
10309;SDS011;5200;43.236;27.986;2023-07-30T08:38:57;1.80;;;1.50;;
10309;SDS011;5200;43.236;27.986;2023-07-30T08:41:24;1.65;;;1.20;;
10309;SDS011;5200;43.236;27.986;2023-07-30T08:43:51;2.58;;;1.35;;
10309;SDS011;5200;43.236;27.986;2023-07-30T08:46:33;2.40;;;1.40;;
10309;SDS011;5200;43.236;27.986;2023-07-30T08:49:02;1.50;;;1.40;;
10309;SDS011;5200;43.236;27.986;2023-07-30T08:51:29;1.48;;;1.38;;
10309;SDS011;5200;43.236;27.986;2023-07-30T08:53:56;1.23;;;1.20;;
10309;SDS011;5200;43.236;27.986;2023-07-30T08:56:24;3.63;;;1.50;;
10309;SDS011;5200;43.236;27.986;2023-07-30T08:58:52;1.30;;;1.20;;
10309;SDS011;5200;43.236;27.986;2023-07-30T09:01:22;1.60;;;1.50;;
10309;SDS011;5200;43.236;27.986;2023-07-30T09:03:53;2.45;;;1.45;;
10309;SDS011;5200;43.236;27.986;2023-07-30T09:06:22;2.75;;;1.70;;
10309;SDS011;5200;43.236;27.986;2023-07-30T09:08:49;1.15;;;1.10;;
10309;SDS011;5200;43.236;27.986;2023-07-30T09:11:16;1.85;;;1.40;;
10309;SDS011;5200;43.236;27.986;2023-07-30T09:13:43;1.73;;;1.40;;
10309;SDS011;5200;43.236;27.986;2023-07-30T09:16:10;1.88;;;1.52;;
10309;SDS011;5200;43.236;27.986;2023-07-30T09:18:41;1.85;;;1.75;;
10309;SDS011;5200;43.236;27.986;2023-07-30T09:21:09;2.33;;;1.50;;
10309;SDS011;5200;43.236;27.986;2023-07-30T09:23:41;1.40;;;1.10;;
10309;SDS011;5200;43.236;27.986;2023-07-30T09:26:09;1.40;;;1.30;;
10309;SDS011;5200;43.236;27.986;2023-07-30T09:28:36;2.40;;;1.30;;
10309;SDS011;5200;43.236;27.986;2023-07-30T09:31:03;4.05;;;1.90;;
10309;SDS011;5200;43.236;27.986;2023-07-30T09:33:32;1.50;;;1.40;;
10309;SDS011;5200;43.236;27.986;2023-07-30T09:36:01;2.55;;;1.60;;
10309;SDS011;5200;43.236;27.986;2023-07-30T09:38:28;2.35;;;1.35;;
10309;SDS011;5200;43.236;27.986;2023-07-30T09:41:00;3.22;;;1.38;;
10309;SDS011;5200;43.236;27.986;2023-07-30T09:43:28;3.65;;;1.30;;
10309;SDS011;5200;43.236;27.986;2023-07-30T09:45:57;1.58;;;1.23;;
10309;SDS011;5200;43.236;27.986;2023-07-30T09:48:28;1.92;;;1.70;;
10309;SDS011;5200;43.236;27.986;2023-07-30T09:50:56;1.88;;;1.77;;
10309;SDS011;5200;43.236;27.986;2023-07-30T09:53:24;3.17;;;1.58;;
10309;SDS011;5200;43.236;27.986;2023-07-30T09:55:54;2.08;;;1.88;;
10309;SDS011;5200;43.236;27.986;2023-07-30T09:58:23;4.13;;;1.48;;
10309;SDS011;5200;43.236;27.986;2023-07-30T10:00:49;1.25;;;1.13;;
10309;SDS011;5200;43.236;27.986;2023-07-30T10:03:18;4.32;;;1.65;;
10309;SDS011;5200;43.236;27.986;2023-07-30T10:05:45;4.00;;;1.58;;
10309;SDS011;5200;43.236;27.986;2023-07-30T10:08:15;1.50;;;1.40;;
10309;SDS011;5200;43.236;27.986;2023-07-30T10:10:46;1.05;;;1.05;;
10309;SDS011;5200;43.236;27.986;2023-07-30T10:13:14;1.48;;;1.38;;
10309;SDS011;5200;43.236;27.986;2023-07-30T10:15:45;1.73;;;1.63;;
10309;SDS011;5200;43.236;27.986;2023-07-30T10:18:12;1.52;;;1.40;;
10309;SDS011;5200;43.236;27.986;2023-07-30T10:20:40;1.67;;;1.50;;
10309;SDS011;5200;43.236;27.986;2023-07-30T10:23:07;1.55;;;1.45;;
10309;SDS011;5200;43.236;27.986;2023-07-30T10:28:27;1.35;;;1.25;;
10309;SDS011;5200;43.236;27.986;2023-07-30T10:31:02;1.83;;;1.70;;
10309;SDS011;5200;43.236;27.986;2023-07-30T10:33:46;1.50;;;1.40;;
10309;SDS011;5200;43.236;27.986;2023-07-30T10:36:16;1.20;;;1.10;;
10309;SDS011;5200;43.236;27.986;2023-07-30T10:38:53;2.58;;;1.35;;
10309;SDS011;5200;43.236;27.986;2023-07-30T10:41:20;1.75;;;1.40;;
10309;SDS011;5200;43.236;27.986;2023-07-30T10:43:48;1.27;;;1.17;;
10309;SDS011;5200;43.236;27.986;2023-07-30T10:46:18;0.93;;;0.93;;
10309;SDS011;5200;43.236;27.986;2023-07-30T10:48:47;1.55;;;1.25;;
10309;SDS011;5200;43.236;27.986;2023-07-30T10:51:15;1.30;;;1.20;;
10309;SDS011;5200;43.236;27.986;2023-07-30T10:53:43;2.00;;;1.40;;
10309;SDS011;5200;43.236;27.986;2023-07-30T10:56:11;1.10;;;1.10;;
10309;SDS011;5200;43.236;27.986;2023-07-30T10:58:38;1.40;;;1.30;;
10309;SDS011;5200;43.236;27.986;2023-07-30T11:01:06;1.23;;;1.13;;
10309;SDS011;5200;43.236;27.986;2023-07-30T11:03:36;2.05;;;1.13;;
10309;SDS011;5200;43.236;27.986;2023-07-30T11:06:04;1.40;;;1.23;;
10309;SDS011;5200;43.236;27.986;2023-07-30T11:08:34;1.20;;;1.10;;
10309;SDS011;5200;43.236;27.986;2023-07-30T11:11:02;2.10;;;1.30;;
10309;SDS011;5200;43.236;27.986;2023-07-30T11:13:29;1.58;;;1.17;;
10309;SDS011;5200;43.236;27.986;2023-07-30T11:16:01;2.20;;;1.10;;
10309;SDS011;5200;43.236;27.986;2023-07-30T11:18:30;2.35;;;1.17;;
10309;SDS011;5200;43.236;27.986;2023-07-30T11:21:03;1.30;;;1.20;;
10309;SDS011;5200;43.236;27.986;2023-07-30T11:23:31;1.30;;;1.20;;
10309;SDS011;5200;43.236;27.986;2023-07-30T11:25:59;2.45;;;1.45;;
10309;SDS011;5200;43.236;27.986;2023-07-30T11:28:27;1.00;;;0.90;;
10309;SDS011;5200;43.236;27.986;2023-07-30T11:30:55;2.08;;;1.20;;
10309;SDS011;5200;43.236;27.986;2023-07-30T11:33:24;1.48;;;1.38;;
10309;SDS011;5200;43.236;27.986;2023-07-30T11:35:51;1.50;;;1.27;;
10309;SDS011;5200;43.236;27.986;2023-07-30T11:38:20;2.55;;;1.48;;
10309;SDS011;5200;43.236;27.986;2023-07-30T11:40:48;1.50;;;1.35;;
10309;SDS011;5200;43.236;27.986;2023-07-30T11:43:15;2.60;;;1.50;;
10309;SDS011;5200;43.236;27.986;2023-07-30T11:45:42;1.40;;;1.30;;
10309;SDS011;5200;43.236;27.986;2023-07-30T11:48:10;2.50;;;1.40;;
10309;SDS011;5200;43.236;27.986;2023-07-30T11:50:44;3.08;;;1.40;;
10309;SDS011;5200;43.236;27.986;2023-07-30T11:53:12;1.40;;;1.30;;
10309;SDS011;5200;43.236;27.986;2023-07-30T11:55:41;1.52;;;1.40;;
10309;SDS011;5200;43.236;27.986;2023-07-30T11:58:09;1.40;;;1.30;;
10309;SDS011;5200;43.236;27.986;2023-07-30T12:00:37;1.50;;;1.40;;
10309;SDS011;5200;43.236;27.986;2023-07-30T12:03:06;2.75;;;1.20;;
10309;SDS011;5200;43.236;27.986;2023-07-30T12:05:35;1.45;;;1.35;;
10309;SDS011;5200;43.236;27.986;2023-07-30T12:08:04;1.92;;;1.48;;
10309;SDS011;5200;43.236;27.986;2023-07-30T12:10:44;2.13;;;1.35;;
10309;SDS011;5200;43.236;27.986;2023-07-30T12:13:18;1.58;;;1.45;;
10309;SDS011;5200;43.236;27.986;2023-07-30T12:15:50;3.38;;;1.65;;
10309;SDS011;5200;43.236;27.986;2023-07-30T12:18:18;1.60;;;1.50;;
10309;SDS011;5200;43.236;27.986;2023-07-30T12:20:45;1.35;;;1.23;;
10309;SDS011;5200;43.236;27.986;2023-07-30T12:23:12;1.52;;;1.40;;
10309;SDS011;5200;43.236;27.986;2023-07-30T12:25:39;2.55;;;1.40;;
10309;SDS011;5200;43.236;27.986;2023-07-30T12:28:07;1.92;;;1.58;;
10309;SDS011;5200;43.236;27.986;2023-07-30T12:30:34;1.25;;;1.15;;
10309;SDS011;5200;43.236;27.986;2023-07-30T12:33:02;1.15;;;1.10;;
10309;SDS011;5200;43.236;27.986;2023-07-30T12:35:29;3.65;;;1.45;;
10309;SDS011;5200;43.236;27.986;2023-07-30T12:37:56;1.58;;;1.38;;
10309;SDS011;5200;43.236;27.986;2023-07-30T12:40:23;1.50;;;1.40;;
10309;SDS011;5200;43.236;27.986;2023-07-30T12:42:50;1.55;;;1.45;;
10309;SDS011;5200;43.236;27.986;2023-07-30T12:45:19;1.52;;;1.42;;
10309;SDS011;5200;43.236;27.986;2023-07-30T12:47:46;1.50;;;1.40;;
10309;SDS011;5200;43.236;27.986;2023-07-30T12:50:13;2.03;;;1.42;;
10309;SDS011;5200;43.236;27.986;2023-07-30T12:52:40;1.30;;;1.30;;
10309;SDS011;5200;43.236;27.986;2023-07-30T12:55:09;2.05;;;1.35;;
10309;SDS011;5200;43.236;27.986;2023-07-30T12:57:36;1.30;;;1.20;;
10309;SDS011;5200;43.236;27.986;2023-07-30T13:00:03;1.50;;;1.40;;
10309;SDS011;5200;43.236;27.986;2023-07-30T13:05:31;2.33;;;1.33;;
10309;SDS011;5200;43.236;27.986;2023-07-30T13:07:57;2.80;;;1.42;;
10309;SDS011;5200;43.236;27.986;2023-07-30T13:10:24;1.80;;;1.40;;
10309;SDS011;5200;43.236;27.986;2023-07-30T13:12:51;2.05;;;1.40;;
10309;SDS011;5200;43.236;27.986;2023-07-30T13:15:18;2.55;;;1.30;;
10309;SDS011;5200;43.236;27.986;2023-07-30T13:17:46;1.00;;;1.00;;
10309;SDS011;5200;43.236;27.986;2023-07-30T13:20:14;1.60;;;1.50;;
10309;SDS011;5200;43.236;27.986;2023-07-30T13:22:41;1.55;;;1.20;;
10309;SDS011;5200;43.236;27.986;2023-07-30T13:25:07;1.70;;;1.23;;
10309;SDS011;5200;43.236;27.986;2023-07-30T13:27:34;1.40;;;1.30;;
10309;SDS011;5200;43.236;27.986;2023-07-30T13:30:02;1.42;;;1.00;;
10309;SDS011;5200;43.236;27.986;2023-07-30T13:32:29;1.42;;;1.20;;
10309;SDS011;5200;43.236;27.986;2023-07-30T13:34:56;1.20;;;0.95;;
10309;SDS011;5200;43.236;27.986;2023-07-30T13:37:24;2.88;;;1.45;;
10309;SDS011;5200;43.236;27.986;2023-07-30T13:39:51;2.67;;;1.30;;
10309;SDS011;5200;43.236;27.986;2023-07-30T13:42:18;1.48;;;1.38;;
10309;SDS011;5200;43.236;27.986;2023-07-30T13:44:45;1.30;;;1.20;;
10309;SDS011;5200;43.236;27.986;2023-07-30T13:47:12;1.45;;;1.30;;
10309;SDS011;5200;43.236;27.986;2023-07-30T13:49:38;1.85;;;1.15;;
10309;SDS011;5200;43.236;27.986;2023-07-30T13:52:06;1.58;;;1.30;;
10309;SDS011;5200;43.236;27.986;2023-07-30T13:54:34;1.30;;;1.27;;
10309;SDS011;5200;43.236;27.986;2023-07-30T13:57:02;3.22;;;1.50;;
10309;SDS011;5200;43.236;27.986;2023-07-30T13:59:29;1.63;;;1.45;;
10309;SDS011;5200;43.236;27.986;2023-07-30T14:01:56;1.40;;;1.30;;
10309;SDS011;5200;43.236;27.986;2023-07-30T14:04:23;3.13;;;1.55;;
10309;SDS011;5200;43.236;27.986;2023-07-30T14:06:50;1.50;;;1.40;;
10309;SDS011;5200;43.236;27.986;2023-07-30T14:09:17;3.08;;;1.42;;
10309;SDS011;5200;43.236;27.986;2023-07-30T14:11:45;1.20;;;1.10;;
10309;SDS011;5200;43.236;27.986;2023-07-30T14:14:12;2.50;;;1.50;;
10309;SDS011;5200;43.236;27.986;2023-07-30T14:16:39;1.33;;;1.23;;
10309;SDS011;5200;43.236;27.986;2023-07-30T14:19:06;1.20;;;1.08;;
10309;SDS011;5200;43.236;27.986;2023-07-30T14:21:33;1.33;;;1.23;;
10309;SDS011;5200;43.236;27.986;2023-07-30T14:23:59;1.30;;;1.20;;
10309;SDS011;5200;43.236;27.986;2023-07-30T14:26:26;1.13;;;1.10;;
10309;SDS011;5200;43.236;27.986;2023-07-30T14:28:54;1.17;;;1.15;;
10309;SDS011;5200;43.236;27.986;2023-07-30T14:31:21;2.45;;;1.60;;
10309;SDS011;5200;43.236;27.986;2023-07-30T14:33:48;2.35;;;1.50;;
10309;SDS011;5200;43.236;27.986;2023-07-30T14:36:15;1.48;;;1.10;;
10309;SDS011;5200;43.236;27.986;2023-07-30T14:38:42;1.35;;;1.25;;
10309;SDS011;5200;43.236;27.986;2023-07-30T14:44:02;3.15;;;1.60;;
10309;SDS011;5200;43.236;27.986;2023-07-30T14:46:28;1.83;;;1.25;;
10309;SDS011;5200;43.236;27.986;2023-07-30T14:48:55;1.25;;;1.17;;
10309;SDS011;5200;43.236;27.986;2023-07-30T14:51:22;1.20;;;1.15;;
10309;SDS011;5200;43.236;27.986;2023-07-30T14:53:49;1.92;;;1.23;;
10309;SDS011;5200;43.236;27.986;2023-07-30T14:56:16;1.45;;;1.25;;
10309;SDS011;5200;43.236;27.986;2023-07-30T14:58:43;1.75;;;1.55;;
10309;SDS011;5200;43.236;27.986;2023-07-30T15:01:11;1.35;;;1.30;;